createdAt,value
2022-10-11T00:01:25.181Z,5.93
2022-10-11T00:03:52.005Z,7.25
2022-10-11T00:06:18.695Z,8.00
2022-10-11T00:08:45.397Z,8.60
2022-10-11T00:11:12.175Z,8.80
2022-10-11T00:13:38.977Z,10.60
2022-10-11T00:16:11.212Z,6.88
2022-10-11T00:18:38.980Z,10.82
2022-10-11T00:21:08.299Z,9.55
2022-10-11T00:23:36.238Z,6.78
2022-10-11T00:26:06.197Z,7.68
2022-10-11T00:28:33.918Z,8.15
2022-10-11T00:31:00.987Z,8.40
2022-10-11T00:33:28.253Z,9.90
2022-10-11T00:35:54.966Z,9.48
2022-10-11T00:38:21.820Z,8.20
2022-10-11T00:40:48.545Z,9.07
2022-10-11T00:43:21.744Z,8.15
2022-10-11T00:45:57.641Z,8.55
2022-10-11T00:48:27.738Z,10.43
2022-10-11T00:50:58.151Z,8.20
2022-10-11T00:53:26.059Z,8.70
2022-10-11T00:56:14.583Z,5.25
2022-10-11T00:58:42.082Z,7.70
2022-10-11T01:01:09.023Z,10.45
2022-10-11T01:03:37.955Z,7.22
2022-10-11T01:06:05.289Z,9.68
2022-10-11T01:08:32.591Z,8.63
2022-10-11T01:10:59.566Z,9.93
2022-10-11T01:13:53.778Z,8.75
2022-10-11T01:16:38.496Z,11.48
2022-10-11T01:19:40.102Z,7.57
2022-10-11T01:22:44.310Z,5.55
2022-10-11T01:25:23.070Z,7.30
2022-10-11T01:28:01.575Z,13.38
2022-10-11T01:30:31.631Z,11.20
2022-10-11T01:33:09.252Z,7.73
2022-10-11T01:35:54.108Z,6.15
2022-10-11T01:38:57.244Z,7.03
2022-10-11T01:41:28.987Z,10.10
2022-10-11T01:43:59.512Z,8.63
2022-10-11T01:46:28.308Z,11.95
2022-10-11T01:48:57.797Z,7.65
2022-10-11T01:51:32.059Z,8.80
2022-10-11T01:54:10.816Z,6.25
2022-10-11T01:57:08.591Z,7.90
2022-10-11T01:59:41.486Z,10.98
2022-10-11T02:02:53.009Z,9.23
2022-10-11T02:05:38.707Z,7.57
2022-10-11T02:08:15.266Z,14.80
2022-10-11T02:10:58.550Z,9.48
2022-10-11T02:13:31.466Z,10.25
2022-10-11T02:16:03.932Z,7.40
2022-10-11T02:18:36.116Z,11.05
2022-10-11T02:21:06.518Z,7.60
2022-10-11T02:23:55.852Z,4.47
2022-10-11T02:26:24.843Z,7.72
2022-10-11T02:28:55.870Z,8.07
2022-10-11T02:31:24.383Z,5.95
2022-10-11T02:34:05.242Z,6.72
2022-10-11T02:36:43.014Z,12.70
2022-10-11T02:39:17.746Z,4.88
2022-10-11T02:41:46.488Z,8.05
2022-10-11T02:44:23.174Z,6.20
2022-10-11T02:46:51.173Z,5.90
2022-10-11T02:49:19.783Z,9.73
2022-10-11T02:51:46.462Z,7.65
2022-10-11T02:54:13.204Z,6.57
2022-10-11T02:56:39.907Z,7.45
2022-10-11T02:59:06.621Z,8.60
2022-10-11T03:01:33.387Z,6.35
2022-10-11T03:04:00.213Z,9.23
2022-10-11T03:06:26.959Z,6.50
2022-10-11T03:08:53.638Z,9.85
2022-10-11T03:11:20.357Z,9.32
2022-10-11T03:13:47.061Z,11.43
2022-10-11T03:16:14.279Z,6.85
2022-10-11T03:18:41.566Z,12.65
2022-10-11T03:21:08.317Z,6.65
2022-10-11T03:23:35.093Z,8.48
2022-10-11T03:26:02.118Z,11.32
2022-10-11T03:28:29.397Z,9.05
2022-10-11T03:30:56.109Z,6.28
2022-10-11T03:33:22.877Z,6.25
2022-10-11T03:35:50.318Z,5.85
2022-10-11T03:38:20.567Z,6.60
2022-10-11T03:40:48.009Z,6.53
2022-10-11T03:43:14.959Z,9.40
2022-10-11T03:45:44.622Z,11.52
2022-10-11T03:48:11.805Z,12.25
2022-10-11T03:50:38.872Z,14.05
2022-10-11T03:53:06.838Z,5.97
2022-10-11T03:55:33.681Z,7.20
2022-10-11T03:58:00.691Z,6.40
2022-10-11T04:00:27.445Z,6.97
2022-10-11T04:02:54.256Z,5.93
2022-10-11T04:05:21.011Z,7.78
2022-10-11T04:07:47.707Z,9.23
2022-10-11T04:10:14.417Z,9.30
2022-10-11T04:12:41.280Z,12.48
2022-10-11T04:15:08.670Z,5.22
2022-10-11T04:17:35.406Z,10.80
2022-10-11T04:20:02.083Z,7.22
2022-10-11T04:22:28.800Z,6.30
2022-10-11T04:24:55.543Z,6.95
2022-10-11T04:27:22.322Z,6.00
2022-10-11T04:29:49.035Z,6.20
2022-10-11T04:32:15.725Z,7.20
2022-10-11T04:34:42.466Z,8.60
2022-10-11T04:37:09.204Z,10.75
2022-10-11T04:39:36.157Z,5.95
2022-10-11T04:42:02.959Z,7.72
2022-10-11T04:44:30.044Z,8.05
2022-10-11T04:46:56.896Z,7.45
2022-10-11T04:49:23.809Z,8.85
2022-10-11T04:51:50.640Z,7.20
2022-10-11T04:54:17.709Z,8.77
2022-10-11T04:56:44.459Z,11.32
2022-10-11T04:59:11.741Z,7.75
2022-10-11T05:01:38.544Z,8.90
2022-10-11T05:04:05.530Z,9.68
2022-10-11T05:06:32.292Z,8.30
2022-10-11T05:08:59.011Z,10.07
2022-10-11T05:11:25.717Z,9.32
2022-10-11T05:13:52.427Z,8.15
2022-10-11T05:16:19.154Z,6.95
2022-10-11T05:18:45.893Z,7.10
2022-10-11T05:21:24.087Z,8.82
2022-10-11T05:23:52.432Z,7.55
2022-10-11T05:26:20.739Z,9.95
2022-10-11T05:28:48.107Z,12.27
2022-10-11T05:31:16.289Z,9.48
2022-10-11T05:33:43.374Z,6.22
2022-10-11T05:36:10.614Z,11.48
2022-10-11T05:38:38.229Z,10.32
2022-10-11T05:41:06.866Z,7.18
2022-10-11T05:43:33.577Z,13.55
2022-10-11T05:46:00.285Z,7.53
2022-10-11T05:48:28.441Z,16.02
2022-10-11T05:51:03.203Z,19.27
2022-10-11T05:53:30.055Z,6.25
2022-10-11T05:55:57.527Z,11.55
2022-10-11T05:58:24.459Z,12.77
2022-10-11T06:00:51.249Z,11.23
2022-10-11T06:03:18.010Z,9.45
2022-10-11T06:05:44.711Z,13.60
2022-10-11T06:08:11.531Z,8.40
2022-10-11T06:10:38.942Z,14.15
2022-10-11T06:13:06.892Z,8.40
2022-10-11T06:15:34.049Z,9.60
2022-10-11T06:18:00.849Z,13.20
2022-10-11T06:20:27.840Z,18.20
2022-10-11T06:22:54.692Z,12.73
2022-10-11T06:25:21.562Z,9.88
2022-10-11T06:27:48.284Z,16.30
2022-10-11T06:30:15.157Z,15.00
2022-10-11T06:32:41.857Z,17.83
2022-10-11T06:35:08.999Z,9.63
2022-10-11T06:37:36.052Z,15.75
2022-10-11T06:40:03.601Z,13.63
2022-10-11T06:42:30.303Z,11.07
2022-10-11T06:44:57.025Z,13.43
2022-10-11T06:47:23.759Z,17.13
2022-10-11T06:49:50.562Z,19.08
2022-10-11T06:52:17.273Z,18.98
2022-10-11T06:54:44.981Z,21.48
2022-10-11T06:57:12.240Z,18.33
2022-10-11T06:59:39.049Z,15.88
2022-10-11T07:02:06.791Z,13.20
2022-10-11T07:04:33.950Z,14.30
2022-10-11T07:07:01.023Z,10.60
2022-10-11T07:09:28.108Z,13.93
2022-10-11T07:11:54.832Z,18.17
2022-10-11T07:14:21.625Z,16.67
2022-10-11T07:16:48.405Z,17.45
2022-10-11T07:19:15.254Z,15.57
2022-10-11T07:21:42.071Z,13.00
2022-10-11T07:24:08.888Z,13.05
2022-10-11T07:26:38.800Z,14.77
2022-10-11T07:29:08.278Z,16.42
2022-10-11T07:31:37.697Z,13.25
2022-10-11T07:34:04.468Z,15.32
2022-10-11T07:36:31.176Z,11.38
2022-10-11T07:38:58.029Z,10.45
2022-10-11T07:41:24.795Z,10.35
2022-10-11T07:43:51.635Z,15.15
2022-10-11T07:46:18.713Z,10.73
2022-10-11T07:48:45.739Z,14.48
2022-10-11T07:51:18.944Z,13.23
2022-10-11T07:53:48.140Z,9.48
2022-10-11T07:56:17.799Z,11.93
2022-10-11T07:58:44.867Z,11.68
2022-10-11T08:01:12.225Z,17.15
2022-10-11T08:03:39.228Z,16.00
2022-10-11T08:06:09.137Z,17.35
2022-10-11T08:08:37.001Z,11.00
2022-10-11T08:11:04.023Z,14.40
2022-10-11T08:13:30.906Z,11.75
2022-10-11T08:15:58.341Z,10.60
2022-10-11T08:18:25.203Z,13.45
2022-10-11T08:20:52.095Z,15.13
2022-10-11T08:23:19.387Z,15.27
2022-10-11T08:25:47.312Z,11.10
2022-10-11T08:28:17.312Z,8.82
2022-10-11T08:30:52.159Z,11.50
2022-10-11T08:33:19.542Z,11.38
2022-10-11T08:35:46.680Z,7.55
2022-10-11T08:38:14.013Z,12.05
2022-10-11T08:40:51.128Z,11.77
2022-10-11T08:43:45.627Z,11.65
2022-10-11T08:46:14.882Z,12.90
2022-10-11T08:48:46.000Z,13.57
2022-10-11T08:54:08.001Z,10.13
2022-10-11T08:56:39.821Z,10.93
2022-10-11T08:59:12.814Z,13.45
2022-10-11T09:02:15.060Z,11.90
2022-10-11T09:04:41.876Z,11.23
2022-10-11T09:07:32.071Z,10.82
2022-10-11T09:10:03.761Z,14.07
2022-10-11T09:13:02.110Z,21.38
2022-10-11T09:15:57.571Z,14.20
2022-10-11T09:18:30.330Z,8.55
2022-10-11T09:21:25.485Z,15.05
2022-10-11T09:24:10.868Z,7.30
2022-10-11T09:27:01.456Z,13.82
2022-10-11T09:30:08.212Z,12.82
2022-10-11T09:32:41.073Z,26.83
2022-10-11T09:35:21.828Z,7.68
2022-10-11T09:37:57.689Z,10.00
2022-10-11T09:41:00.572Z,7.90
2022-10-11T09:43:27.400Z,15.73
2022-10-11T09:45:54.189Z,11.05
2022-10-11T09:48:24.974Z,12.57
2022-10-11T09:50:54.489Z,19.05
2022-10-11T09:53:56.306Z,9.52
2022-10-11T09:56:25.702Z,10.18
2022-10-11T09:59:10.345Z,12.48
2022-10-11T10:01:37.461Z,12.68
2022-10-11T10:04:11.293Z,7.05
2022-10-11T10:06:38.790Z,8.30
2022-10-11T10:09:30.070Z,8.95
2022-10-11T10:11:58.035Z,11.48
2022-10-11T10:14:28.977Z,9.98
2022-10-11T10:19:44.527Z,7.82
2022-10-11T10:24:49.064Z,8.45
2022-10-11T10:27:25.623Z,9.73
2022-10-11T10:30:04.429Z,33.10
2022-10-11T10:32:35.063Z,8.80
2022-10-11T10:35:29.032Z,16.73
2022-10-11T10:38:17.804Z,8.60
2022-10-11T10:40:58.230Z,6.15
2022-10-11T10:43:28.814Z,12.45
2022-10-11T10:46:20.591Z,7.88
2022-10-11T10:49:52.519Z,8.45
2022-10-11T10:52:31.488Z,5.43
2022-10-11T10:55:22.938Z,9.95
2022-10-11T10:58:07.205Z,8.57
2022-10-11T11:01:02.897Z,11.70
2022-10-11T11:03:42.064Z,6.22
2022-10-11T11:06:18.495Z,4.85
2022-10-11T11:08:51.101Z,7.60
2022-10-11T11:11:45.252Z,6.45
2022-10-11T11:14:23.400Z,8.13
2022-10-11T11:17:15.659Z,19.00
2022-10-11T11:20:06.714Z,12.25
2022-10-11T11:22:53.447Z,7.07
2022-10-11T11:25:46.674Z,10.38
2022-10-11T11:28:48.435Z,4.78
2022-10-11T11:31:26.896Z,5.30
2022-10-11T11:34:31.414Z,8.50
2022-10-11T11:37:38.573Z,6.05
2022-10-11T11:40:18.309Z,8.00
2022-10-11T11:42:55.633Z,9.35
2022-10-11T11:45:29.349Z,12.40
2022-10-11T11:48:18.612Z,11.40
2022-10-11T11:50:55.267Z,6.70
2022-10-11T11:53:43.397Z,11.13
2022-10-11T11:56:23.315Z,11.23
2022-10-11T11:59:11.985Z,10.93
2022-10-11T12:02:01.604Z,8.07
2022-10-11T12:04:41.620Z,7.13
2022-10-11T12:07:17.114Z,7.28
2022-10-11T12:09:51.748Z,11.82
2022-10-11T12:12:37.252Z,7.38
2022-10-11T12:15:06.789Z,12.07
2022-10-11T12:17:33.635Z,12.38
2022-10-11T12:20:20.961Z,8.40
2022-10-11T12:22:52.238Z,6.57
2022-10-11T12:25:22.041Z,6.05
2022-10-11T12:27:52.549Z,7.68
2022-10-11T12:30:44.097Z,15.40
2022-10-11T12:33:22.196Z,9.18
2022-10-11T12:35:54.821Z,7.70
2022-10-11T12:38:30.878Z,7.55
2022-10-11T12:41:09.339Z,13.90
2022-10-11T12:43:47.957Z,26.60
2022-10-11T12:46:29.573Z,9.52
2022-10-11T12:49:17.254Z,5.28
2022-10-11T12:51:53.958Z,9.90
2022-10-11T12:55:04.374Z,7.00
2022-10-11T12:58:15.266Z,5.53
2022-10-11T13:00:51.654Z,7.32
2022-10-11T13:03:33.114Z,6.30
2022-10-11T13:06:09.377Z,5.28
2022-10-11T13:08:40.205Z,8.57
2022-10-11T13:11:11.598Z,6.70
2022-10-11T13:13:54.076Z,6.95
2022-10-11T13:16:27.244Z,5.25
2022-10-11T13:18:58.253Z,12.88
2022-10-11T13:24:02.347Z,16.33
2022-10-11T13:26:31.284Z,6.78
2022-10-11T13:29:00.161Z,7.80
2022-10-11T13:31:27.395Z,8.48
2022-10-11T13:33:57.459Z,8.75
2022-10-11T13:36:27.238Z,10.73
2022-10-11T13:39:00.141Z,5.15
2022-10-11T13:41:29.412Z,5.00
2022-10-11T13:43:58.232Z,5.78
2022-10-11T13:46:27.901Z,8.07
2022-10-11T13:49:03.639Z,6.05
2022-10-11T13:51:37.862Z,7.07
2022-10-11T13:54:05.889Z,3.85
2022-10-11T13:56:52.783Z,6.03
2022-10-11T13:59:24.883Z,4.20
2022-10-11T14:02:00.089Z,5.45
2022-10-11T14:04:29.711Z,3.38
2022-10-11T14:07:02.971Z,6.88
2022-10-11T14:09:38.389Z,6.22
2022-10-11T14:12:28.898Z,4.13
2022-10-11T14:14:55.697Z,6.57
2022-10-11T14:17:38.591Z,3.70
2022-10-11T14:20:11.877Z,6.13
2022-10-11T14:22:39.082Z,4.88
2022-10-11T14:25:06.193Z,3.60
2022-10-11T14:27:33.005Z,9.65
2022-10-11T14:30:24.081Z,4.70
2022-10-11T14:32:49.877Z,6.30
2022-10-11T14:35:24.300Z,6.93
2022-10-11T14:37:51.760Z,6.93
2022-10-11T14:40:21.852Z,5.07
2022-10-11T14:42:49.081Z,6.15
2022-10-11T14:45:16.922Z,11.95
2022-10-11T14:47:44.128Z,7.07
2022-10-11T14:50:28.360Z,7.10
2022-10-11T14:52:55.940Z,6.15
2022-10-11T14:55:23.123Z,5.72
2022-10-11T14:57:49.932Z,8.05
2022-10-11T15:00:23.049Z,4.85
2022-10-11T15:02:52.635Z,7.80
2022-10-11T15:05:20.193Z,5.85
2022-10-11T15:07:47.525Z,5.10
2022-10-11T15:10:24.913Z,5.15
2022-10-11T15:12:53.772Z,7.50
2022-10-11T15:15:23.423Z,7.30
2022-10-11T15:17:53.599Z,3.33
2022-10-11T15:20:30.274Z,16.83
2022-10-11T15:22:57.756Z,20.17
2022-10-11T15:25:24.977Z,11.93
2022-10-11T15:27:52.449Z,7.55
2022-10-11T15:30:23.194Z,10.05
2022-10-11T15:32:50.703Z,5.13
2022-10-11T15:35:17.959Z,8.13
2022-10-11T15:37:45.012Z,6.15
2022-10-11T15:40:17.973Z,6.13
2022-10-11T15:42:44.890Z,7.93
2022-10-11T15:45:12.217Z,9.15
2022-10-11T15:47:38.978Z,7.03
2022-10-11T15:50:33.623Z,6.50
2022-10-11T15:53:02.718Z,6.15
2022-10-11T15:55:30.617Z,6.95
2022-10-11T15:57:57.502Z,5.80
2022-10-11T16:00:25.913Z,7.45
2022-10-11T16:02:53.658Z,8.07
2022-10-11T16:05:21.994Z,7.22
2022-10-11T16:07:48.760Z,7.82
2022-10-11T16:10:15.728Z,6.78
2022-10-11T16:12:42.997Z,4.65
2022-10-11T16:15:10.276Z,6.47
2022-10-11T16:17:37.267Z,10.15
2022-10-11T16:20:06.921Z,13.77
2022-10-11T16:22:36.989Z,8.20
2022-10-11T16:25:04.784Z,17.58
2022-10-11T16:27:32.158Z,46.67
2022-10-11T16:30:00.374Z,44.15
2022-10-11T16:32:27.993Z,13.93
2022-10-11T16:34:54.748Z,9.63
2022-10-11T16:37:21.533Z,46.33
2022-10-11T16:39:48.239Z,40.60
2022-10-11T16:42:15.023Z,25.45
2022-10-11T16:44:41.776Z,14.15
2022-10-11T16:47:08.611Z,9.50
2022-10-11T16:49:35.384Z,8.18
2022-10-11T16:52:03.846Z,8.30
2022-10-11T16:54:31.640Z,5.88
2022-10-11T16:56:59.663Z,9.13
2022-10-11T16:59:26.858Z,10.60
2022-10-11T17:01:53.767Z,10.70
2022-10-11T17:04:21.129Z,8.48
2022-10-11T17:06:47.906Z,6.47
2022-10-11T17:09:14.714Z,7.43
2022-10-11T17:11:41.799Z,8.50
2022-10-11T17:14:09.334Z,7.03
2022-10-11T17:16:36.049Z,8.02
2022-10-11T17:19:03.147Z,9.32
2022-10-11T17:21:30.056Z,8.98
2022-10-11T17:23:56.814Z,7.45
2022-10-11T17:26:27.524Z,8.93
2022-10-11T17:28:56.015Z,8.52
2022-10-11T17:31:24.071Z,7.88
2022-10-11T17:33:51.120Z,8.00
2022-10-11T17:36:31.681Z,6.65
2022-10-11T17:39:00.805Z,8.52
2022-10-11T17:41:31.781Z,7.35
2022-10-11T17:43:59.483Z,6.45
2022-10-11T17:46:28.042Z,9.70
2022-10-11T17:48:55.560Z,11.35
2022-10-11T17:51:22.690Z,7.15
2022-10-11T17:53:52.941Z,10.35
2022-10-11T17:56:28.116Z,12.05
2022-10-11T17:58:57.122Z,6.53
2022-10-11T18:01:28.956Z,18.88
2022-10-11T18:04:01.494Z,11.25
2022-10-11T18:06:31.434Z,11.40
2022-10-11T18:09:01.880Z,9.82
2022-10-11T18:11:29.334Z,10.15
2022-10-11T18:13:56.129Z,10.48
2022-10-11T18:16:26.960Z,10.07
2022-10-11T18:18:57.196Z,9.55
2022-10-11T18:21:28.779Z,13.82
2022-10-11T18:24:05.150Z,10.52
2022-10-11T18:26:32.109Z,11.50
2022-10-11T18:28:59.225Z,10.77
2022-10-11T18:31:29.853Z,10.48
2022-10-11T18:33:57.729Z,10.07
2022-10-11T18:36:26.975Z,14.52
2022-10-11T18:38:56.314Z,12.63
2022-10-11T18:41:30.426Z,9.43
2022-10-11T18:44:00.049Z,8.15
2022-10-11T18:46:27.801Z,11.63
2022-10-11T18:48:56.367Z,30.63
2022-10-11T18:51:25.431Z,40.50
2022-10-11T18:53:52.839Z,26.95
2022-10-11T18:56:22.943Z,12.35
2022-10-11T18:58:50.913Z,12.50
2022-10-11T19:01:26.876Z,9.75
2022-10-11T19:03:56.649Z,11.13
2022-10-11T19:06:26.512Z,14.77
2022-10-11T19:08:55.490Z,11.90
2022-10-11T19:11:25.145Z,10.93
2022-10-11T19:14:03.388Z,16.52
2022-10-11T19:16:30.608Z,11.30
2022-10-11T19:18:57.795Z,14.73
2022-10-11T19:21:24.646Z,14.75
2022-10-11T19:23:52.009Z,15.77
2022-10-11T19:26:34.232Z,13.23
2022-10-11T19:29:23.247Z,45.22
2022-10-11T19:31:52.381Z,48.95
2022-10-11T19:34:20.063Z,100.90
2022-10-11T19:36:47.101Z,62.47
2022-10-11T19:39:15.349Z,22.58
2022-10-11T19:41:43.046Z,14.70
2022-10-11T19:44:11.047Z,13.77
2022-10-11T19:46:50.894Z,13.77
2022-10-11T19:49:22.354Z,13.40
2022-10-11T19:51:49.089Z,12.90
2022-10-11T19:54:15.982Z,11.43
2022-10-11T19:56:42.753Z,12.60
2022-10-11T19:59:10.995Z,10.32
2022-10-11T20:01:39.700Z,13.27
2022-10-11T20:04:15.355Z,11.20
2022-10-11T20:06:49.672Z,10.80
2022-10-11T20:09:28.990Z,11.38
2022-10-11T20:11:56.576Z,14.25
2022-10-11T20:14:23.381Z,17.13
2022-10-11T20:16:50.755Z,12.65
2022-10-11T20:19:17.639Z,123.32
2022-10-11T20:21:44.904Z,61.30
2022-10-11T20:24:11.703Z,43.33
2022-10-11T20:26:39.203Z,66.47
2022-10-11T20:29:06.339Z,36.83
2022-10-11T20:31:34.935Z,18.73
2022-10-11T20:34:04.161Z,21.75
2022-10-11T20:36:32.139Z,17.50
2022-10-11T20:39:00.046Z,12.65
2022-10-11T20:41:31.523Z,15.20
2022-10-11T20:44:00.246Z,42.10
2022-10-11T20:46:32.531Z,33.45
2022-10-11T20:49:02.313Z,24.23
2022-10-11T20:51:31.119Z,22.95
2022-10-11T20:53:59.075Z,18.35
2022-10-11T20:56:26.718Z,17.17
2022-10-11T20:58:55.344Z,17.77
2022-10-11T21:01:26.316Z,17.48
2022-10-11T21:06:20.484Z,13.43
2022-10-11T21:08:47.243Z,16.25
2022-10-11T21:11:14.178Z,16.38
2022-10-11T21:13:41.992Z,20.77
2022-10-11T21:16:14.839Z,14.48
2022-10-11T21:18:42.109Z,15.98
2022-10-11T21:21:11.348Z,15.93
2022-10-11T21:23:38.508Z,17.70
2022-10-11T21:26:07.834Z,18.58
2022-10-11T21:28:34.748Z,16.02
2022-10-11T21:31:12.637Z,16.23
2022-10-11T21:33:40.503Z,16.70
2022-10-11T21:36:09.859Z,16.02
2022-10-11T21:38:37.507Z,13.57
2022-10-11T21:41:10.621Z,16.63
2022-10-11T21:43:38.364Z,14.18
2022-10-11T21:46:16.206Z,13.77
2022-10-11T21:48:43.012Z,14.05
2022-10-11T21:51:19.250Z,17.50
2022-10-11T21:53:45.995Z,14.88
2022-10-11T21:56:12.705Z,15.63
2022-10-11T21:58:39.657Z,15.57
2022-10-11T22:01:06.477Z,13.00
2022-10-11T22:03:33.349Z,12.82
2022-10-11T22:06:03.653Z,15.45
2022-10-11T22:08:30.575Z,15.10
2022-10-11T22:10:59.652Z,15.65
2022-10-11T22:13:28.014Z,12.95
2022-10-11T22:15:57.626Z,12.98
2022-10-11T22:18:24.902Z,12.30
2022-10-11T22:20:51.816Z,10.40
2022-10-11T22:23:19.158Z,12.75
2022-10-11T22:25:46.162Z,10.93
2022-10-11T22:28:13.117Z,15.15
2022-10-11T22:30:39.915Z,13.90
2022-10-11T22:33:06.607Z,14.68
2022-10-11T22:35:37.517Z,11.55
2022-10-11T22:38:06.248Z,10.15
2022-10-11T22:40:33.242Z,13.70
2022-10-11T22:42:59.975Z,12.50
2022-10-11T22:45:26.766Z,14.43
2022-10-11T22:47:53.461Z,12.50
2022-10-11T22:50:20.209Z,13.40
2022-10-11T22:52:46.885Z,9.13
2022-10-11T22:55:19.013Z,11.27
2022-10-11T22:57:46.747Z,14.82
2022-10-11T23:00:13.795Z,9.63
2022-10-11T23:02:41.108Z,12.10
2022-10-11T23:05:08.083Z,11.82
2022-10-11T23:07:35.276Z,12.85
2022-10-11T23:10:02.449Z,12.98
2022-10-11T23:12:29.158Z,14.20
2022-10-11T23:14:55.946Z,9.70
2022-10-11T23:17:22.767Z,10.00
2022-10-11T23:19:49.590Z,13.98
2022-10-11T23:22:16.522Z,11.63
2022-10-11T23:24:43.272Z,14.25
2022-10-11T23:27:10.002Z,11.00
2022-10-11T23:29:40.070Z,12.18
2022-10-11T23:32:10.849Z,10.45
2022-10-11T23:34:38.047Z,12.40
2022-10-11T23:37:05.753Z,9.60
2022-10-11T23:39:32.750Z,12.85
2022-10-11T23:41:59.477Z,14.88
2022-10-11T23:44:26.182Z,12.25
2022-10-11T23:46:52.886Z,13.90
2022-10-11T23:49:19.745Z,10.43
2022-10-11T23:51:46.673Z,11.35
2022-10-11T23:54:13.498Z,12.60
2022-10-11T23:56:40.247Z,10.95
2022-10-11T23:59:06.995Z,13.82
